WXM80 ListenWXM80 Stop

You find our weather info also at:

UK Metoffice

WeatherCloud

Weather Underground

Northeastern Weather Network

AWEKAS

Citizen Weather Observer Program (CWOP)

HAMweather, WeatherForYou, PWS Weather


Weather Underground History page Text

Daily Summary for September 11, 2017 Units:  Both    English   Metric
« Previous Day
Next Day »
Daily Weekly Monthly Yearly Custom
  High: Low: Average:
Temperature: 79.9 °F /  26.6 °C 55.8 °F /  13.2 °C 66.9 °F /  19.4 °C
Dew Point: 61.3 °F /  16.3 °C 51.8 °F /  11 °C 55.6 °F /  13.1 °C
Humidity: 89 % 42 % 69 %
Wind Speed: 9.0 mph /  14.5 km/h - 1.5 mph /  2.4 km/h
Wind Gust: 15.0 mph /  24.1 km/h - -
Wind:- - SW
Pressure: 30.31 in /  1026.3 hPa 30.06 in /  1017.8 hPa -
Precipitation: 0.00 in /  0 mm    
Historical Graphs
 
 
Tabular Data for September 11, 2017
Time Temperature Dew Point Pressure Wind Wind Speed Wind Gust Humidity Rainfall Rate (Hourly)
00:01 62.3 °F /  16.8 °C 53.5 °F /  11.9 °C 30.30 in /  1026 hPa Calm     73 % 0.00 in /  0 mm
00:12 62.0 °F /  16.7 °C 53.6 °F /  12 °C 30.30 in /  1026 hPa Calm   2.3 mph /  3.7 km/h 74 % 0.00 in /  0 mm
00:17 61.9 °F /  16.6 °C 53.5 °F /  11.9 °C 30.31 in /  1026.3 hPa Calm     74 % 0.00 in /  0 mm
00:22 61.7 °F /  16.5 °C 53.7 °F /  12.1 °C 30.30 in /  1026 hPa Calm     75 % 0.00 in /  0 mm
00:27 61.5 °F /  16.4 °C 53.9 °F /  12.2 °C 30.31 in /  1026.3 hPa Calm     76 % 0.00 in /  0 mm
00:32 61.3 °F /  16.3 °C 53.7 °F /  12.1 °C 30.30 in /  1026 hPa NW 0.1 mph /  0.2 km/h 2.3 mph /  3.7 km/h 76 % 0.00 in /  0 mm
00:37 61.1 °F /  16.2 °C 53.5 °F /  11.9 °C 30.30 in /  1026 hPa NNE 0.7 mph /  1.1 km/h 2.3 mph /  3.7 km/h 76 % 0.00 in /  0 mm
00:42 60.9 °F /  16.1 °C 53.3 °F /  11.8 °C 30.30 in /  1026 hPa Calm     76 % 0.00 in /  0 mm
00:47 60.7 °F /  15.9 °C 53.4 °F /  11.9 °C 30.30 in /  1026 hPa North 0.4 mph /  0.6 km/h 1.2 mph /  1.9 km/h 77 % 0.00 in /  0 mm
00:52 60.5 °F /  15.8 °C 53.6 °F /  12 °C 30.30 in /  1026 hPa NNW 2.2 mph /  3.5 km/h 4.6 mph /  7.4 km/h 78 % 0.00 in /  0 mm
00:57 60.4 °F /  15.8 °C 53.5 °F /  11.9 °C 30.30 in /  1026 hPa NE 3.6 mph /  5.8 km/h 9.2 mph /  14.8 km/h 78 % 0.00 in /  0 mm
01:02 60.5 °F /  15.8 °C 53.6 °F /  12 °C 30.30 in /  1026 hPa NNE 0.6 mph /  1 km/h 1.2 mph /  1.9 km/h 78 % 0.00 in /  0 mm
01:07 60.5 °F /  15.8 °C 53.6 °F /  12 °C 30.30 in /  1026 hPa North 0.9 mph /  1.4 km/h 3.5 mph /  5.6 km/h 78 % 0.00 in /  0 mm
01:12 60.6 °F /  15.9 °C 53.7 °F /  12.1 °C 30.30 in /  1026 hPa NNE 2.6 mph /  4.2 km/h 5.8 mph /  9.3 km/h 78 % 0.00 in /  0 mm
01:17 60.7 °F /  15.9 °C 53.8 °F /  12.1 °C 30.30 in /  1026 hPa NNE 0.6 mph /  1 km/h 3.5 mph /  5.6 km/h 78 % 0.00 in /  0 mm
01:22 60.8 °F /  16 °C 53.9 °F /  12.2 °C 30.30 in /  1026 hPa North 0.2 mph /  0.3 km/h 1.2 mph /  1.9 km/h 78 % 0.00 in /  0 mm
01:27 60.8 °F /  16 °C 53.9 °F /  12.2 °C 30.29 in /  1025.6 hPa NNE 0.4 mph /  0.6 km/h 4.6 mph /  7.4 km/h 78 % 0.00 in /  0 mm
01:32 60.8 °F /  16 °C 53.5 °F /  11.9 °C 30.29 in /  1025.6 hPa NNW 0.6 mph /  1 km/h 3.5 mph /  5.6 km/h 77 % 0.00 in /  0 mm
01:37 60.9 °F /  16.1 °C 53.6 °F /  12 °C 30.29 in /  1025.6 hPa North 3.8 mph /  6.1 km/h 10.0 mph /  16.1 km/h 77 % 0.00 in /  0 mm
01:42 60.9 °F /  16.1 °C 53.6 °F /  12 °C 30.28 in /  1025.3 hPa NW 0.2 mph /  0.3 km/h 2.0 mph /  3.2 km/h 77 % 0.00 in /  0 mm
01:47 61.0 °F /  16.1 °C 53.7 °F /  12.1 °C 30.28 in /  1025.3 hPa NNW 3.5 mph /  5.6 km/h 6.9 mph /  11.1 km/h 77 % 0.00 in /  0 mm
01:52 61.1 °F /  16.2 °C 53.8 °F /  12.1 °C 30.28 in /  1025.3 hPa NNW 0.1 mph /  0.2 km/h 2.3 mph /  3.7 km/h 77 % 0.00 in /  0 mm
01:57 61.1 °F /  16.2 °C 53.5 °F /  11.9 °C 30.28 in /  1025.3 hPa NNE 3.2 mph /  5.1 km/h 5.8 mph /  9.3 km/h 76 % 0.00 in /  0 mm
02:02 61.2 °F /  16.2 °C 53.6 °F /  12 °C 30.27 in /  1024.9 hPa North 3.7 mph /  6 km/h 6.9 mph /  11.1 km/h 76 % 0.00 in /  0 mm
02:07 61.2 °F /  16.2 °C 53.2 °F /  11.8 °C 30.27 in /  1024.9 hPa NE 4.8 mph /  7.7 km/h 10.4 mph /  16.7 km/h 75 % 0.00 in /  0 mm
02:12 61.3 °F /  16.3 °C 53.7 °F /  12.1 °C 30.27 in /  1024.9 hPa North 5.7 mph /  9.2 km/h 8.1 mph /  13 km/h 76 % 0.00 in /  0 mm
02:17 61.4 °F /  16.3 °C 53.8 °F /  12.1 °C 30.27 in /  1024.9 hPa NNE 4.3 mph /  6.9 km/h 9.2 mph /  14.8 km/h 76 % 0.00 in /  0 mm
02:22 61.5 °F /  16.4 °C 53.5 °F /  11.9 °C 30.26 in /  1024.6 hPa NNE 4.5 mph /  7.2 km/h 6.9 mph /  11.1 km/h 75 % 0.00 in /  0 mm
02:27 61.5 °F /  16.4 °C 53.5 °F /  11.9 °C 30.26 in /  1024.6 hPa NNE 5.8 mph /  9.3 km/h 9.2 mph /  14.8 km/h 75 % 0.00 in /  0 mm
02:32 61.6 °F /  16.4 °C 53.2 °F /  11.8 °C 30.26 in /  1024.6 hPa North 5.5 mph /  8.9 km/h 9.2 mph /  14.8 km/h 74 % 0.00 in /  0 mm
02:37 61.6 °F /  16.4 °C 53.6 °F /  12 °C 30.26 in /  1024.6 hPa North 8.2 mph /  13.2 km/h 11.5 mph /  18.5 km/h 75 % 0.00 in /  0 mm
02:42 61.6 °F /  16.4 °C 53.2 °F /  11.8 °C 30.26 in /  1024.6 hPa North 4.2 mph /  6.8 km/h 9.0 mph /  14.5 km/h 74 % 0.00 in /  0 mm
02:47 61.6 °F /  16.4 °C 53.2 °F /  11.8 °C 30.26 in /  1024.6 hPa NNE 6.8 mph /  10.9 km/h 11.0 mph /  17.7 km/h 74 % 0.00 in /  0 mm
02:52 61.6 °F /  16.4 °C 53.2 °F /  11.8 °C 30.26 in /  1024.6 hPa North 7.4 mph /  11.9 km/h 11.5 mph /  18.5 km/h 74 % 0.00 in /  0 mm
02:57 61.6 °F /  16.4 °C 53.2 °F /  11.8 °C 30.26 in /  1024.6 hPa North 4.1 mph /  6.6 km/h 9.2 mph /  14.8 km/h 74 % 0.00 in /  0 mm
03:02 61.6 °F /  16.4 °C 53.6 °F /  12 °C 30.26 in /  1024.6 hPa NNW 6.7 mph /  10.8 km/h 11.5 mph /  18.5 km/h 75 % 0.00 in /  0 mm
03:07 61.5 °F /  16.4 °C 53.1 °F /  11.7 °C 30.26 in /  1024.6 hPa North 4.3 mph /  6.9 km/h 8.1 mph /  13 km/h 74 % 0.00 in /  0 mm
03:12 61.5 °F /  16.4 °C 52.8 °F /  11.6 °C 30.26 in /  1024.6 hPa North 4.6 mph /  7.4 km/h 11.5 mph /  18.5 km/h 73 % 0.00 in /  0 mm
03:17 61.4 °F /  16.3 °C 53.0 °F /  11.7 °C 30.26 in /  1024.6 hPa NNE 6.1 mph /  9.8 km/h 9.2 mph /  14.8 km/h 74 % 0.00 in /  0 mm
03:22 61.4 °F /  16.3 °C 53.4 °F /  11.9 °C 30.26 in /  1024.6 hPa NNE 8.1 mph /  13 km/h 11.0 mph /  17.7 km/h 75 % 0.00 in /  0 mm
03:28 61.3 °F /  16.3 °C 53.3 °F /  11.8 °C 30.26 in /  1024.6 hPa NE 6.9 mph /  11.1 km/h 10.0 mph /  16.1 km/h 75 % 0.00 in /  0 mm
03:33 61.3 °F /  16.3 °C 53.7 °F /  12.1 °C 30.26 in /  1024.6 hPa NE 6.5 mph /  10.5 km/h 10.4 mph /  16.7 km/h 76 % 0.00 in /  0 mm
03:38 61.3 °F /  16.3 °C 53.3 °F /  11.8 °C 30.26 in /  1024.6 hPa NNE 7.3 mph /  11.7 km/h 15.0 mph /  24.1 km/h 75 % 0.00 in /  0 mm
03:43 61.2 °F /  16.2 °C 53.2 °F /  11.8 °C 30.26 in /  1024.6 hPa NNE 9.0 mph /  14.5 km/h 13.8 mph /  22.2 km/h 75 % 0.00 in /  0 mm
03:48 61.3 °F /  16.3 °C 53.3 °F /  11.8 °C 30.26 in /  1024.6 hPa NNE 3.7 mph /  6 km/h 11.5 mph /  18.5 km/h 75 % 0.00 in /  0 mm
03:53 61.2 °F /  16.2 °C 53.2 °F /  11.8 °C 30.26 in /  1024.6 hPa NNE 5.6 mph /  9 km/h 10.4 mph /  16.7 km/h 75 % 0.00 in /  0 mm
03:58 61.2 °F /  16.2 °C 53.6 °F /  12 °C 30.26 in /  1024.6 hPa North 2.7 mph /  4.3 km/h 6.9 mph /  11.1 km/h 76 % 0.00 in /  0 mm
04:03 61.1 °F /  16.2 °C 53.5 °F /  11.9 °C 30.25 in /  1024.3 hPa NNE 6.6 mph /  10.6 km/h 10.4 mph /  16.7 km/h 76 % 0.00 in /  0 mm
04:08 61.1 °F /  16.2 °C 53.5 °F /  11.9 °C 30.26 in /  1024.6 hPa NNE 4.4 mph /  7.1 km/h 11.5 mph /  18.5 km/h 76 % 0.00 in /  0 mm
04:13 61.0 °F /  16.1 °C 53.4 °F /  11.9 °C 30.26 in /  1024.6 hPa NNE 5.1 mph /  8.2 km/h 9.2 mph /  14.8 km/h 76 % 0.00 in /  0 mm
04:18 60.9 °F /  16.1 °C 53.3 °F /  11.8 °C 30.26 in /  1024.6 hPa North 4.9 mph /  7.9 km/h 8.1 mph /  13 km/h 76 % 0.00 in /  0 mm
04:23 60.8 °F /  16 °C 53.2 °F /  11.8 °C 30.26 in /  1024.6 hPa NNE 6.1 mph /  9.8 km/h 10.4 mph /  16.7 km/h 76 % 0.00 in /  0 mm
04:28 60.7 °F /  15.9 °C 53.8 °F /  12.1 °C 30.26 in /  1024.6 hPa NNE 3.6 mph /  5.8 km/h 6.9 mph /  11.1 km/h 78 % 0.00 in /  0 mm
04:33 60.6 °F /  15.9 °C 53.7 °F /  12.1 °C 30.26 in /  1024.6 hPa NNE 3.0 mph /  4.8 km/h 5.0 mph /  8 km/h 78 % 0.00 in /  0 mm
04:38 60.4 °F /  15.8 °C 53.5 °F /  11.9 °C 30.26 in /  1024.6 hPa NNE 3.8 mph /  6.1 km/h 6.0 mph /  9.7 km/h 78 % 0.00 in /  0 mm
04:43 60.3 °F /  15.7 °C 53.4 °F /  11.9 °C 30.26 in /  1024.6 hPa North 1.3 mph /  2.1 km/h 5.8 mph /  9.3 km/h 78 % 0.00 in /  0 mm
04:48 60.2 °F /  15.7 °C 53.3 °F /  11.8 °C 30.26 in /  1024.6 hPa NNE 0.4 mph /  0.6 km/h 1.0 mph /  1.6 km/h 78 % 0.00 in /  0 mm
04:53 60.1 °F /  15.6 °C 53.6 °F /  12 °C 30.26 in /  1024.6 hPa NNE 0.1 mph /  0.2 km/h 2.3 mph /  3.7 km/h 79 % 0.00 in /  0 mm
04:59 60.0 °F /  15.6 °C 53.5 °F /  11.9 °C 30.26 in /  1024.6 hPa Calm     79 % 0.00 in /  0 mm
05:04 59.9 °F /  15.5 °C 53.4 °F /  11.9 °C 30.27 in /  1024.9 hPa Calm     79 % 0.00 in /  0 mm
05:09 59.7 °F /  15.4 °C 53.2 °F /  11.8 °C 30.26 in /  1024.6 hPa Calm     79 % 0.00 in /  0 mm
05:14 59.6 °F /  15.3 °C 53.4 °F /  11.9 °C 30.26 in /  1024.6 hPa Calm     80 % 0.00 in /  0 mm
05:19 59.4 °F /  15.2 °C 52.9 °F /  11.6 °C 30.26 in /  1024.6 hPa NNE 0.5 mph /  0.8 km/h 4.0 mph /  6.4 km/h 79 % 0.00 in /  0 mm
05:24 59.2 °F /  15.1 °C 53.0 °F /  11.7 °C 30.26 in /  1024.6 hPa Calm     80 % 0.00 in /  0 mm
05:29 59.0 °F /  15 °C 52.8 °F /  11.6 °C 30.26 in /  1024.6 hPa Calm     80 % 0.00 in /  0 mm
05:34 58.8 °F /  14.9 °C 52.6 °F /  11.4 °C 30.27 in /  1024.9 hPa NNE 0.2 mph /  0.3 km/h 1.0 mph /  1.6 km/h 80 % 0.00 in /  0 mm
05:39 58.6 °F /  14.8 °C 52.8 °F /  11.6 °C 30.26 in /  1024.6 hPa NNE 0.4 mph /  0.6 km/h 3.5 mph /  5.6 km/h 81 % 0.00 in /  0 mm
05:44 58.4 °F /  14.7 °C 52.9 °F /  11.6 °C 30.26 in /  1024.6 hPa NNE 0.5 mph /  0.8 km/h 3.5 mph /  5.6 km/h 82 % 0.00 in /  0 mm
05:49 58.2 °F /  14.6 °C 52.7 °F /  11.5 °C 30.26 in /  1024.6 hPa Calm     82 % 0.00 in /  0 mm
05:54 58.1 °F /  14.5 °C 52.6 °F /  11.4 °C 30.27 in /  1024.9 hPa Calm     82 % 0.00 in /  0 mm
05:59 57.9 °F /  14.4 °C 52.4 °F /  11.3 °C 30.26 in /  1024.6 hPa Calm     82 % 0.00 in /  0 mm
06:04 57.8 °F /  14.3 °C 52.7 °F /  11.5 °C 30.26 in /  1024.6 hPa NNE 0.1 mph /  0.2 km/h 2.3 mph /  3.7 km/h 83 % 0.00 in /  0 mm
06:15 57.5 °F /  14.2 °C 52.7 °F /  11.5 °C 30.26 in /  1024.6 hPa Calm     84 % 0.00 in /  0 mm
06:20 57.3 °F /  14.1 °C 52.5 °F /  11.4 °C 30.27 in /  1024.9 hPa Calm     84 % 0.00 in /  0 mm
06:25 57.1 °F /  13.9 °C 52.6 °F /  11.4 °C 30.27 in /  1024.9 hPa Calm     85 % 0.00 in /  0 mm
06:30 56.9 °F /  13.8 °C 52.4 °F /  11.3 °C 30.28 in /  1025.3 hPa North 0.8 mph /  1.3 km/h 4.0 mph /  6.4 km/h 85 % 0.00 in /  0 mm
06:35 56.7 °F /  13.7 °C 52.2 °F /  11.2 °C 30.27 in /  1024.9 hPa Calm   1.2 mph /  1.9 km/h 85 % 0.00 in /  0 mm
06:40 56.6 °F /  13.7 °C 52.1 °F /  11.2 °C 30.27 in /  1024.9 hPa North 0.1 mph /  0.2 km/h 1.2 mph /  1.9 km/h 85 % 0.00 in /  0 mm
06:45 56.3 °F /  13.5 °C 51.8 °F /  11 °C 30.27 in /  1024.9 hPa Calm   2.3 mph /  3.7 km/h 85 % 0.00 in /  0 mm
06:50 56.2 °F /  13.4 °C 52.1 °F /  11.2 °C 30.28 in /  1025.3 hPa North 0.3 mph /  0.5 km/h 1.0 mph /  1.6 km/h 86 % 0.00 in /  0 mm
06:55 56.0 °F /  13.3 °C 51.9 °F /  11.1 °C 30.28 in /  1025.3 hPa NNE 1.0 mph /  1.6 km/h 3.5 mph /  5.6 km/h 86 % 0.00 in /  0 mm
07:00 55.9 °F /  13.3 °C 52.1 °F /  11.2 °C 30.28 in /  1025.3 hPa Calm   1.2 mph /  1.9 km/h 87 % 0.00 in /  0 mm
07:05 55.8 °F /  13.2 °C 52.0 °F /  11.1 °C 30.29 in /  1025.6 hPa NNW 0.6 mph /  1 km/h 3.5 mph /  5.6 km/h 87 % 0.00 in /  0 mm
07:10 55.8 °F /  13.2 °C 52.3 °F /  11.3 °C 30.29 in /  1025.6 hPa NNW 0.6 mph /  1 km/h 2.3 mph /  3.7 km/h 88 % 0.00 in /  0 mm
07:15 55.9 °F /  13.3 °C 52.4 °F /  11.3 °C 30.29 in /  1025.6 hPa North 0.5 mph /  0.8 km/h 3.5 mph /  5.6 km/h 88 % 0.00 in /  0 mm
07:21 55.9 °F /  13.3 °C 52.7 °F /  11.5 °C 30.29 in /  1025.6 hPa Calm   2.0 mph /  3.2 km/h 89 % 0.00 in /  0 mm
07:26 56.0 °F /  13.3 °C 52.8 °F /  11.6 °C 30.30 in /  1026 hPa NNW 1.0 mph /  1.6 km/h 2.0 mph /  3.2 km/h 89 % 0.00 in /  0 mm
07:31 56.1 °F /  13.4 °C 52.9 °F /  11.6 °C 30.30 in /  1026 hPa Calm   2.0 mph /  3.2 km/h 89 % 0.00 in /  0 mm
07:36 56.3 °F /  13.5 °C 53.1 °F /  11.7 °C 30.30 in /  1026 hPa NW 1.0 mph /  1.6 km/h 4.0 mph /  6.4 km/h 89 % 0.00 in /  0 mm
07:41 56.5 °F /  13.6 °C 53.0 °F /  11.7 °C 30.30 in /  1026 hPa WNW 0.7 mph /  1.1 km/h 5.8 mph /  9.3 km/h 88 % 0.00 in /  0 mm
07:45 56.7 °F /  13.7 °C 53.2 °F /  11.8 °C 30.30 in /  1026 hPa WNW 0.1 mph /  0.2 km/h 2.3 mph /  3.7 km/h 88 % 0.00 in /  0 mm
07:51 56.9 °F /  13.8 °C 53.4 °F /  11.9 °C 30.29 in /  1025.6 hPa NW 1.1 mph /  1.8 km/h 2.0 mph /  3.2 km/h 88 % 0.00 in /  0 mm
07:56 57.2 °F /  14 °C 53.4 °F /  11.9 °C 30.29 in /  1025.6 hPa WNW 1.0 mph /  1.6 km/h 3.0 mph /  4.8 km/h 87 % 0.00 in /  0 mm
08:01 57.5 °F /  14.2 °C 53.7 °F /  12.1 °C 30.29 in /  1025.6 hPa NW 1.1 mph /  1.8 km/h 3.5 mph /  5.6 km/h 87 % 0.00 in /  0 mm
08:06 57.8 °F /  14.3 °C 53.3 °F /  11.8 °C 30.29 in /  1025.6 hPa Calm   1.2 mph /  1.9 km/h 85 % 0.00 in /  0 mm
08:11 58.0 °F /  14.4 °C 53.5 °F /  11.9 °C 30.29 in /  1025.6 hPa West 0.4 mph /  0.6 km/h 2.3 mph /  3.7 km/h 85 % 0.00 in /  0 mm
08:16 58.3 °F /  14.6 °C 53.8 °F /  12.1 °C 30.28 in /  1025.3 hPa NW 0.4 mph /  0.6 km/h 3.0 mph /  4.8 km/h 85 % 0.00 in /  0 mm
08:21 58.5 °F /  14.7 °C 54.0 °F /  12.2 °C 30.28 in /  1025.3 hPa Calm     85 % 0.00 in /  0 mm
08:26 58.7 °F /  14.8 °C 54.2 °F /  12.3 °C 30.28 in /  1025.3 hPa NW 1.2 mph /  1.9 km/h 3.5 mph /  5.6 km/h 85 % 0.00 in /  0 mm
08:31 59.0 °F /  15 °C 54.2 °F /  12.3 °C 30.28 in /  1025.3 hPa North 0.1 mph /  0.2 km/h 1.2 mph /  1.9 km/h 84 % 0.00 in /  0 mm
08:36 59.2 °F /  15.1 °C 54.4 °F /  12.4 °C 30.28 in /  1025.3 hPa WNW 1.7 mph /  2.7 km/h 4.6 mph /  7.4 km/h 84 % 0.00 in /  0 mm
08:41 59.4 °F /  15.2 °C 54.2 °F /  12.3 °C 30.27 in /  1024.9 hPa NW 0.6 mph /  1 km/h 2.3 mph /  3.7 km/h 83 % 0.00 in /  0 mm
08:46 59.6 °F /  15.3 °C 54.4 °F /  12.4 °C 30.27 in /  1024.9 hPa WNW 3.4 mph /  5.5 km/h 4.6 mph /  7.4 km/h 83 % 0.00 in /  0 mm
08:51 59.8 °F /  15.4 °C 54.3 °F /  12.4 °C 30.27 in /  1024.9 hPa WNW 0.3 mph /  0.5 km/h 2.0 mph /  3.2 km/h 82 % 0.00 in /  0 mm
08:56 60.0 °F /  15.6 °C 54.5 °F /  12.5 °C 30.28 in /  1025.3 hPa WNW 0.8 mph /  1.3 km/h 4.6 mph /  7.4 km/h 82 % 0.00 in /  0 mm
09:01 60.2 °F /  15.7 °C 54.7 °F /  12.6 °C 30.28 in /  1025.3 hPa Calm   3.5 mph /  5.6 km/h 82 % 0.00 in /  0 mm
09:06 60.4 °F /  15.8 °C 54.9 °F /  12.7 °C 30.27 in /  1024.9 hPa West 2.3 mph /  3.7 km/h 4.6 mph /  7.4 km/h 82 % 0.00 in /  0 mm
09:11 60.6 °F /  15.9 °C 54.7 °F /  12.6 °C 30.28 in /  1025.3 hPa West 0.2 mph /  0.3 km/h 1.2 mph /  1.9 km/h 81 % 0.00 in /  0 mm
09:16 60.9 °F /  16.1 °C 55.0 °F /  12.8 °C 30.27 in /  1024.9 hPa North 2.9 mph /  4.7 km/h 4.6 mph /  7.4 km/h 81 % 0.00 in /  0 mm
09:21 61.1 °F /  16.2 °C 54.2 °F /  12.3 °C 30.27 in /  1024.9 hPa NNW 1.6 mph /  2.6 km/h 3.5 mph /  5.6 km/h 78 % 0.00 in /  0 mm
09:24 61.2 °F /  16.2 °C 54.3 °F /  12.4 °C 30.27 in /  1024.9 hPa WNW 1.4 mph /  2.3 km/h 2.3 mph /  3.7 km/h 78 % 0.00 in /  0 mm
09:29 61.4 °F /  16.3 °C 55.2 °F /  12.9 °C 30.27 in /  1024.9 hPa WNW 0.1 mph /  0.2 km/h 1.0 mph /  1.6 km/h 80 % 0.00 in /  0 mm
09:34 61.6 °F /  16.4 °C 55.0 °F /  12.8 °C 30.27 in /  1024.9 hPa WNW 0.4 mph /  0.6 km/h 3.5 mph /  5.6 km/h 79 % 0.00 in /  0 mm
09:39 61.7 °F /  16.5 °C 55.1 °F /  12.8 °C 30.27 in /  1024.9 hPa WNW 1.1 mph /  1.8 km/h 2.3 mph /  3.7 km/h 79 % 0.00 in /  0 mm
09:44 62.0 °F /  16.7 °C 54.7 °F /  12.6 °C 30.28 in /  1025.3 hPa Calm   3.5 mph /  5.6 km/h 77 % 0.00 in /  0 mm
09:54 62.7 °F /  17.1 °C 54.7 °F /  12.6 °C 30.27 in /  1024.9 hPa WNW 0.8 mph /  1.3 km/h 1.2 mph /  1.9 km/h 75 % 0.00 in /  0 mm
09:59 63.1 °F /  17.3 °C 54.7 °F /  12.6 °C 30.27 in /  1024.9 hPa NNE 2.2 mph /  3.5 km/h 3.5 mph /  5.6 km/h 74 % 0.00 in /  0 mm
10:04 63.4 °F /  17.4 °C 55.0 °F /  12.8 °C 30.27 in /  1024.9 hPa NNW 1.4 mph /  2.3 km/h 3.5 mph /  5.6 km/h 74 % 0.00 in /  0 mm
10:09 63.6 °F /  17.6 °C 55.5 °F /  13.1 °C 30.27 in /  1024.9 hPa NW 1.1 mph /  1.8 km/h 3.5 mph /  5.6 km/h 75 % 0.00 in /  0 mm
10:14 63.8 °F /  17.7 °C 55.4 °F /  13 °C 30.27 in /  1024.9 hPa Calm   3.5 mph /  5.6 km/h 74 % 0.00 in /  0 mm
10:19 64.0 °F /  17.8 °C 55.5 °F /  13.1 °C 30.27 in /  1024.9 hPa NW 0.7 mph /  1.1 km/h 2.3 mph /  3.7 km/h 74 % 0.00 in /  0 mm
10:24 64.2 °F /  17.9 °C 55.7 °F /  13.2 °C 30.27 in /  1024.9 hPa West 1.5 mph /  2.4 km/h 3.5 mph /  5.6 km/h 74 % 0.00 in /  0 mm
10:29 64.3 °F /  17.9 °C 55.8 °F /  13.2 °C 30.26 in /  1024.6 hPa North 1.0 mph /  1.6 km/h 3.5 mph /  5.6 km/h 74 % 0.00 in /  0 mm
10:30 64.4 °F /  18 °C 55.9 °F /  13.3 °C 30.26 in /  1024.6 hPa North 0.2 mph /  0.3 km/h 1.2 mph /  1.9 km/h 74 % 0.00 in /  0 mm
10:35 64.5 °F /  18.1 °C 56.0 °F /  13.3 °C 30.26 in /  1024.6 hPa WNW 1.7 mph /  2.7 km/h 3.5 mph /  5.6 km/h 74 % 0.00 in /  0 mm
10:40 64.7 °F /  18.2 °C 55.8 °F /  13.2 °C 30.26 in /  1024.6 hPa NNW 1.5 mph /  2.4 km/h 3.5 mph /  5.6 km/h 73 % 0.00 in /  0 mm
10:45 64.9 °F /  18.3 °C 55.7 °F /  13.2 °C 30.26 in /  1024.6 hPa NNW 1.8 mph /  2.9 km/h 3.5 mph /  5.6 km/h 72 % 0.00 in /  0 mm
10:50 65.3 °F /  18.5 °C 56.4 °F /  13.6 °C 30.25 in /  1024.3 hPa NW 0.4 mph /  0.6 km/h 2.3 mph /  3.7 km/h 73 % 0.00 in /  0 mm
10:55 65.5 °F /  18.6 °C 56.2 °F /  13.4 °C 30.25 in /  1024.3 hPa WNW 0.5 mph /  0.8 km/h 1.2 mph /  1.9 km/h 72 % 0.00 in /  0 mm
11:00 65.8 °F /  18.8 °C 56.1 °F /  13.4 °C 30.26 in /  1024.6 hPa NE 2.9 mph /  4.7 km/h 5.8 mph /  9.3 km/h 71 % 0.00 in /  0 mm
11:05 66.2 °F /  19 °C 56.1 °F /  13.4 °C 30.25 in /  1024.3 hPa West 2.8 mph /  4.5 km/h 6.9 mph /  11.1 km/h 70 % 0.00 in /  0 mm
11:11 66.6 °F /  19.2 °C 56.1 °F /  13.4 °C 30.26 in /  1024.6 hPa WNW 3.3 mph /  5.3 km/h 4.6 mph /  7.4 km/h 69 % 0.00 in /  0 mm
11:16 67.2 °F /  19.6 °C 56.2 °F /  13.4 °C 30.25 in /  1024.3 hPa West 2.0 mph /  3.2 km/h 7.0 mph /  11.3 km/h 68 % 0.00 in /  0 mm
11:21 67.9 °F /  19.9 °C 57.7 °F /  14.3 °C 30.25 in /  1024.3 hPa Calm   4.0 mph /  6.4 km/h 70 % 0.00 in /  0 mm
11:26 68.8 °F /  20.4 °C 57.4 °F /  14.1 °C 30.24 in /  1023.9 hPa WNW 3.0 mph /  4.8 km/h 4.6 mph /  7.4 km/h 67 % 0.00 in /  0 mm
11:31 69.6 °F /  20.9 °C 57.7 °F /  14.3 °C 30.24 in /  1023.9 hPa WNW 1.0 mph /  1.6 km/h 4.0 mph /  6.4 km/h 66 % 0.00 in /  0 mm
11:36 70.4 °F /  21.3 °C 57.2 °F /  14 °C 30.23 in /  1023.6 hPa WNW 1.0 mph /  1.6 km/h 6.0 mph /  9.7 km/h 63 % 0.00 in /  0 mm
11:41 71.3 °F /  21.8 °C 57.1 °F /  13.9 °C 30.23 in /  1023.6 hPa NW 2.0 mph /  3.2 km/h 5.0 mph /  8 km/h 61 % 0.00 in /  0 mm
11:46 71.9 °F /  22.2 °C 56.8 °F /  13.8 °C 30.23 in /  1023.6 hPa WNW 2.0 mph /  3.2 km/h 7.0 mph /  11.3 km/h 59 % 0.00 in /  0 mm
11:51 72.7 °F /  22.6 °C 59.3 °F /  15.2 °C 30.23 in /  1023.6 hPa Calm   4.0 mph /  6.4 km/h 63 % 0.00 in /  0 mm
11:56 73.2 °F /  22.9 °C 59.4 °F /  15.2 °C 30.22 in /  1023.2 hPa NW 1.0 mph /  1.6 km/h 4.0 mph /  6.4 km/h 62 % 0.00 in /  0 mm
12:01 73.9 °F /  23.3 °C 59.6 °F /  15.3 °C 30.22 in /  1023.2 hPa WNW 1.4 mph /  2.3 km/h 3.5 mph /  5.6 km/h 61 % 0.00 in /  0 mm
12:06 74.4 °F /  23.6 °C 58.2 °F /  14.6 °C 30.22 in /  1023.2 hPa North 2.9 mph /  4.7 km/h 3.5 mph /  5.6 km/h 57 % 0.00 in /  0 mm
12:11 74.8 °F /  23.8 °C 59.0 °F /  15 °C 30.21 in /  1022.9 hPa NNW 0.6 mph /  1 km/h 2.3 mph /  3.7 km/h 58 % 0.00 in /  0 mm
12:16 75.1 °F /  23.9 °C 58.8 °F /  14.9 °C 30.21 in /  1022.9 hPa NW 2.1 mph /  3.4 km/h 4.6 mph /  7.4 km/h 57 % 0.00 in /  0 mm
12:21 75.5 °F /  24.2 °C 59.7 °F /  15.4 °C 30.21 in /  1022.9 hPa West 2.4 mph /  3.9 km/h 4.6 mph /  7.4 km/h 58 % 0.00 in /  0 mm
12:26 75.7 °F /  24.3 °C 57.9 °F /  14.4 °C 30.21 in /  1022.9 hPa West 2.2 mph /  3.5 km/h 3.5 mph /  5.6 km/h 54 % 0.00 in /  0 mm
12:31 75.8 °F /  24.3 °C 60.0 °F /  15.6 °C 30.20 in /  1022.6 hPa North 1.0 mph /  1.6 km/h 3.5 mph /  5.6 km/h 58 % 0.00 in /  0 mm
12:36 76.0 °F /  24.4 °C 57.6 °F /  14.2 °C 30.20 in /  1022.6 hPa NNE 1.6 mph /  2.6 km/h 3.5 mph /  5.6 km/h 53 % 0.00 in /  0 mm
12:41 76.2 °F /  24.6 °C 59.4 °F /  15.2 °C 30.20 in /  1022.6 hPa NW 0.6 mph /  1 km/h 3.5 mph /  5.6 km/h 56 % 0.00 in /  0 mm
12:46 76.6 °F /  24.8 °C 58.7 °F /  14.8 °C 30.19 in /  1022.2 hPa NNE 1.0 mph /  1.6 km/h 3.5 mph /  5.6 km/h 54 % 0.00 in /  0 mm
12:51 76.9 °F /  24.9 °C 59.0 °F /  15 °C 30.19 in /  1022.2 hPa NE 3.2 mph /  5.1 km/h 5.0 mph /  8 km/h 54 % 0.00 in /  0 mm
12:56 77.0 °F /  25 °C 58.6 °F /  14.8 °C 30.19 in /  1022.2 hPa WNW 2.8 mph /  4.5 km/h 3.5 mph /  5.6 km/h 53 % 0.00 in /  0 mm
13:01 77.1 °F /  25.1 °C 58.6 °F /  14.8 °C 30.19 in /  1022.2 hPa NNW 0.6 mph /  1 km/h 3.5 mph /  5.6 km/h 53 % 0.00 in /  0 mm
13:06 77.4 °F /  25.2 °C 60.5 °F /  15.8 °C 30.19 in /  1022.2 hPa WNW 0.7 mph /  1.1 km/h 3.5 mph /  5.6 km/h 56 % 0.00 in /  0 mm
13:11 77.8 °F /  25.4 °C 60.8 °F /  16 °C 30.19 in /  1022.2 hPa WSW 1.6 mph /  2.6 km/h 3.5 mph /  5.6 km/h 56 % 0.00 in /  0 mm
13:16 78.0 °F /  25.6 °C 58.4 °F /  14.7 °C 30.19 in /  1022.2 hPa WNW 1.2 mph /  1.9 km/h 3.5 mph /  5.6 km/h 51 % 0.00 in /  0 mm
13:21 78.1 °F /  25.6 °C 59.6 °F /  15.3 °C 30.19 in /  1022.2 hPa NW 1.5 mph /  2.4 km/h 3.5 mph /  5.6 km/h 53 % 0.00 in /  0 mm
13:26 78.1 °F /  25.6 °C 59.0 °F /  15 °C 30.18 in /  1021.9 hPa WNW 3.1 mph /  5 km/h 4.6 mph /  7.4 km/h 52 % 0.00 in /  0 mm
13:32 78.4 °F /  25.8 °C 60.9 °F /  16.1 °C 30.18 in /  1021.9 hPa WNW 2.6 mph /  4.2 km/h 4.0 mph /  6.4 km/h 55 % 0.00 in /  0 mm
13:37 78.4 °F /  25.8 °C 59.3 °F /  15.2 °C 30.18 in /  1021.9 hPa WNW 2.6 mph /  4.2 km/h 3.5 mph /  5.6 km/h 52 % 0.00 in /  0 mm
13:42 78.5 °F /  25.8 °C 57.7 °F /  14.3 °C 30.18 in /  1021.9 hPa WSW 2.5 mph /  4 km/h 5.0 mph /  8 km/h 49 % 0.00 in /  0 mm
13:47 78.6 °F /  25.9 °C 59.0 °F /  15 °C 30.17 in /  1021.6 hPa WSW 2.1 mph /  3.4 km/h 3.5 mph /  5.6 km/h 51 % 0.00 in /  0 mm
13:52 78.8 °F /  26 °C 61.3 °F /  16.3 °C 30.17 in /  1021.6 hPa WSW 2.6 mph /  4.2 km/h 4.6 mph /  7.4 km/h 55 % 0.00 in /  0 mm
13:57 78.9 °F /  26.1 °C 58.7 °F /  14.8 °C 30.17 in /  1021.6 hPa WNW 0.9 mph /  1.4 km/h 3.5 mph /  5.6 km/h 50 % 0.00 in /  0 mm
14:02 78.9 °F /  26.1 °C 56.4 °F /  13.6 °C 30.18 in /  1021.9 hPa WSW 2.2 mph /  3.5 km/h 4.6 mph /  7.4 km/h 46 % 0.00 in /  0 mm
14:07 79.0 °F /  26.1 °C 59.3 °F /  15.2 °C 30.17 in /  1021.6 hPa SSW 1.4 mph /  2.3 km/h 3.0 mph /  4.8 km/h 51 % 0.00 in /  0 mm
14:12 79.0 °F /  26.1 °C 55.8 °F /  13.2 °C 30.17 in /  1021.6 hPa WSW 1.5 mph /  2.4 km/h 5.8 mph /  9.3 km/h 45 % 0.00 in /  0 mm
14:17 79.0 °F /  26.1 °C 55.8 °F /  13.2 °C 30.16 in /  1021.2 hPa West 2.8 mph /  4.5 km/h 4.6 mph /  7.4 km/h 45 % 0.00 in /  0 mm
14:22 79.0 °F /  26.1 °C 55.8 °F /  13.2 °C 30.16 in /  1021.2 hPa WSW 0.8 mph /  1.3 km/h 3.0 mph /  4.8 km/h 45 % 0.00 in /  0 mm
14:27 79.0 °F /  26.1 °C 56.5 °F /  13.6 °C 30.16 in /  1021.2 hPa WSW 2.6 mph /  4.2 km/h 6.9 mph /  11.1 km/h 46 % 0.00 in /  0 mm
14:33 79.1 °F /  26.2 °C 57.1 °F /  13.9 °C 30.16 in /  1021.2 hPa West 1.6 mph /  2.6 km/h 3.5 mph /  5.6 km/h 47 % 0.00 in /  0 mm
14:38 79.2 °F /  26.2 °C 58.4 °F /  14.7 °C 30.16 in /  1021.2 hPa WSW 2.8 mph /  4.5 km/h 6.9 mph /  11.1 km/h 49 % 0.00 in /  0 mm
14:43 79.1 °F /  26.2 °C 56.5 °F /  13.6 °C 30.16 in /  1021.2 hPa WNW 2.6 mph /  4.2 km/h 4.0 mph /  6.4 km/h 46 % 0.00 in /  0 mm
14:48 79.1 °F /  26.2 °C 57.1 °F /  13.9 °C 30.15 in /  1020.9 hPa West 2.0 mph /  3.2 km/h 5.8 mph /  9.3 km/h 47 % 0.00 in /  0 mm
14:53 79.0 °F /  26.1 °C 57.0 °F /  13.9 °C 30.15 in /  1020.9 hPa WSW 1.0 mph /  1.6 km/h 3.5 mph /  5.6 km/h 47 % 0.00 in /  0 mm
14:58 79.0 °F /  26.1 °C 57.6 °F /  14.2 °C 30.15 in /  1020.9 hPa NNW 0.1 mph /  0.2 km/h 4.6 mph /  7.4 km/h 48 % 0.00 in /  0 mm
15:03 79.0 °F /  26.1 °C 55.8 °F /  13.2 °C 30.15 in /  1020.9 hPa West 3.1 mph /  5 km/h 5.8 mph /  9.3 km/h 45 % 0.00 in /  0 mm
15:08 79.1 °F /  26.2 °C 56.5 °F /  13.6 °C 30.15 in /  1020.9 hPa WNW 2.9 mph /  4.7 km/h 4.6 mph /  7.4 km/h 46 % 0.00 in /  0 mm
15:13 79.1 °F /  26.2 °C 56.5 °F /  13.6 °C 30.14 in /  1020.5 hPa NNW 1.3 mph /  2.1 km/h 4.6 mph /  7.4 km/h 46 % 0.00 in /  0 mm
15:18 79.3 °F /  26.3 °C 55.5 °F /  13.1 °C 30.14 in /  1020.5 hPa WSW 1.1 mph /  1.8 km/h 4.6 mph /  7.4 km/h 44 % 0.00 in /  0 mm
15:23 79.4 °F /  26.3 °C 55.6 °F /  13.1 °C 30.14 in /  1020.5 hPa West 0.9 mph /  1.4 km/h 4.6 mph /  7.4 km/h 44 % 0.00 in /  0 mm
15:28 79.5 °F /  26.4 °C 54.4 °F /  12.4 °C 30.14 in /  1020.5 hPa WNW 2.0 mph /  3.2 km/h 3.5 mph /  5.6 km/h 42 % 0.00 in /  0 mm
15:33 79.6 °F /  26.4 °C 54.5 °F /  12.5 °C 30.13 in /  1020.2 hPa WNW 1.5 mph /  2.4 km/h 4.0 mph /  6.4 km/h 42 % 0.00 in /  0 mm
15:38 79.8 °F /  26.6 °C 54.7 °F /  12.6 °C 30.14 in /  1020.5 hPa NW 1.3 mph /  2.1 km/h 3.5 mph /  5.6 km/h 42 % 0.00 in /  0 mm
15:43 79.8 °F /  26.6 °C 55.3 °F /  12.9 °C 30.13 in /  1020.2 hPa WSW 1.1 mph /  1.8 km/h 5.0 mph /  8 km/h 43 % 0.00 in /  0 mm
15:48 79.9 °F /  26.6 °C 56.7 °F /  13.7 °C 30.13 in /  1020.2 hPa WNW 1.4 mph /  2.3 km/h 3.5 mph /  5.6 km/h 45 % 0.00 in /  0 mm
15:53 79.9 °F /  26.6 °C 56.0 °F /  13.3 °C 30.14 in /  1020.5 hPa West 3.7 mph /  6 km/h 6.9 mph /  11.1 km/h 44 % 0.00 in /  0 mm
15:58 79.8 °F /  26.6 °C 54.7 °F /  12.6 °C 30.13 in /  1020.2 hPa WSW 1.1 mph /  1.8 km/h 3.5 mph /  5.6 km/h 42 % 0.00 in /  0 mm
16:03 79.7 °F /  26.5 °C 55.2 °F /  12.9 °C 30.13 in /  1020.2 hPa WSW 3.9 mph /  6.3 km/h 4.6 mph /  7.4 km/h 43 % 0.00 in /  0 mm
16:08 79.6 °F /  26.4 °C 55.8 °F /  13.2 °C 30.13 in /  1020.2 hPa South 1.7 mph /  2.7 km/h 3.5 mph /  5.6 km/h 44 % 0.00 in /  0 mm
16:13 79.4 °F /  26.3 °C 55.0 °F /  12.8 °C 30.13 in /  1020.2 hPa WSW 2.4 mph /  3.9 km/h 4.0 mph /  6.4 km/h 43 % 0.00 in /  0 mm
16:18 79.2 °F /  26.2 °C 55.4 °F /  13 °C 30.13 in /  1020.2 hPa SW 1.9 mph /  3.1 km/h 4.6 mph /  7.4 km/h 44 % 0.00 in /  0 mm
16:23 79.0 °F /  26.1 °C 55.2 °F /  12.9 °C 30.13 in /  1020.2 hPa West 0.7 mph /  1.1 km/h 3.5 mph /  5.6 km/h 44 % 0.00 in /  0 mm
16:28 78.9 °F /  26.1 °C 54.5 °F /  12.5 °C 30.13 in /  1020.2 hPa WSW 3.2 mph /  5.1 km/h 8.1 mph /  13 km/h 43 % 0.00 in /  0 mm
16:33 78.8 °F /  26 °C 54.4 °F /  12.4 °C 30.13 in /  1020.2 hPa West 0.9 mph /  1.4 km/h 2.3 mph /  3.7 km/h 43 % 0.00 in /  0 mm
16:38 78.6 °F /  25.9 °C 54.9 °F /  12.7 °C 30.12 in /  1019.9 hPa WSW 1.5 mph /  2.4 km/h 2.3 mph /  3.7 km/h 44 % 0.00 in /  0 mm
16:44 78.4 °F /  25.8 °C 55.3 °F /  12.9 °C 30.12 in /  1019.9 hPa WNW 1.3 mph /  2.1 km/h 4.6 mph /  7.4 km/h 45 % 0.00 in /  0 mm
16:49 78.2 °F /  25.7 °C 54.5 °F /  12.5 °C 30.11 in /  1019.5 hPa SW 5.8 mph /  9.3 km/h 7.0 mph /  11.3 km/h 44 % 0.00 in /  0 mm
16:54 78.0 °F /  25.6 °C 54.9 °F /  12.7 °C 30.11 in /  1019.5 hPa WSW 2.1 mph /  3.4 km/h 7.0 mph /  11.3 km/h 45 % 0.00 in /  0 mm
16:59 77.8 °F /  25.4 °C 54.8 °F /  12.7 °C 30.11 in /  1019.5 hPa WSW 1.0 mph /  1.6 km/h 3.5 mph /  5.6 km/h 45 % 0.00 in /  0 mm
17:04 77.6 °F /  25.3 °C 54.6 °F /  12.6 °C 30.11 in /  1019.5 hPa WSW 3.5 mph /  5.6 km/h 5.8 mph /  9.3 km/h 45 % 0.00 in /  0 mm
17:09 77.3 °F /  25.2 °C 55.5 °F /  13.1 °C 30.11 in /  1019.5 hPa WSW 0.7 mph /  1.1 km/h 1.2 mph /  1.9 km/h 47 % 0.00 in /  0 mm
17:14 77.2 °F /  25.1 °C 55.4 °F /  13 °C 30.11 in /  1019.5 hPa Calm     47 % 0.00 in /  0 mm
17:19 76.9 °F /  24.9 °C 55.1 °F /  12.8 °C 30.11 in /  1019.5 hPa Calm   1.2 mph /  1.9 km/h 47 % 0.00 in /  0 mm
17:20 76.9 °F /  24.9 °C 55.1 °F /  12.8 °C 30.11 in /  1019.5 hPa SSW 0.5 mph /  0.8 km/h 2.3 mph /  3.7 km/h 47 % 0.00 in /  0 mm
17:25 76.6 °F /  24.8 °C 56.0 °F /  13.3 °C 30.11 in /  1019.5 hPa WSW 1.8 mph /  2.9 km/h 3.0 mph /  4.8 km/h 49 % 0.00 in /  0 mm
17:30 76.3 °F /  24.6 °C 56.3 °F /  13.5 °C 30.11 in /  1019.5 hPa West 1.2 mph /  1.9 km/h 1.2 mph /  1.9 km/h 50 % 0.00 in /  0 mm
17:35 76.1 °F /  24.5 °C 56.7 °F /  13.7 °C 30.11 in /  1019.5 hPa WNW 0.1 mph /  0.2 km/h 2.3 mph /  3.7 km/h 51 % 0.00 in /  0 mm
17:40 75.8 °F /  24.3 °C 56.4 °F /  13.6 °C 30.11 in /  1019.5 hPa WNW 0.9 mph /  1.4 km/h 3.5 mph /  5.6 km/h 51 % 0.00 in /  0 mm
17:46 75.5 °F /  24.2 °C 55.6 °F /  13.1 °C 30.10 in /  1019.2 hPa West 1.0 mph /  1.6 km/h 5.0 mph /  8 km/h 50 % 0.00 in /  0 mm
17:50 75.2 °F /  24 °C 56.4 °F /  13.6 °C 30.10 in /  1019.2 hPa Calm   2.0 mph /  3.2 km/h 52 % 0.00 in /  0 mm
17:56 75.0 °F /  23.9 °C 55.6 °F /  13.1 °C 30.10 in /  1019.2 hPa West 1.0 mph /  1.6 km/h 4.0 mph /  6.4 km/h 51 % 0.00 in /  0 mm
18:01 74.7 °F /  23.7 °C 55.9 °F /  13.3 °C 30.10 in /  1019.2 hPa West 2.1 mph /  3.4 km/h 3.5 mph /  5.6 km/h 52 % 0.00 in /  0 mm
18:06 74.4 °F /  23.6 °C 56.2 °F /  13.4 °C 30.09 in /  1018.8 hPa Calm   4.0 mph /  6.4 km/h 53 % 0.00 in /  0 mm
18:11 74.1 °F /  23.4 °C 55.9 °F /  13.3 °C 30.09 in /  1018.8 hPa Calm   1.0 mph /  1.6 km/h 53 % 0.00 in /  0 mm
18:15 73.9 °F /  23.3 °C 56.2 °F /  13.4 °C 30.09 in /  1018.8 hPa Calm   1.2 mph /  1.9 km/h 54 % 0.00 in /  0 mm
18:20 73.6 °F /  23.1 °C 56.4 °F /  13.6 °C 30.09 in /  1018.8 hPa WNW 0.2 mph /  0.3 km/h 1.2 mph /  1.9 km/h 55 % 0.00 in /  0 mm
18:25 73.4 °F /  23 °C 57.2 °F /  14 °C 30.09 in /  1018.8 hPa WNW 0.1 mph /  0.2 km/h 1.2 mph /  1.9 km/h 57 % 0.00 in /  0 mm
18:30 73.1 °F /  22.8 °C 57.0 °F /  13.9 °C 30.09 in /  1018.8 hPa WNW 1.0 mph /  1.6 km/h 3.0 mph /  4.8 km/h 57 % 0.00 in /  0 mm
18:36 72.8 °F /  22.7 °C 57.2 °F /  14 °C 30.09 in /  1018.8 hPa Calm   3.0 mph /  4.8 km/h 58 % 0.00 in /  0 mm
18:41 72.5 °F /  22.5 °C 58.3 °F /  14.6 °C 30.09 in /  1018.8 hPa Calm   1.0 mph /  1.6 km/h 61 % 0.00 in /  0 mm
18:45 72.2 °F /  22.3 °C 57.5 °F /  14.2 °C 30.09 in /  1018.8 hPa Calm   2.0 mph /  3.2 km/h 60 % 0.00 in /  0 mm
18:50 71.9 °F /  22.2 °C 57.3 °F /  14.1 °C 30.09 in /  1018.8 hPa Calm   4.0 mph /  6.4 km/h 60 % 0.00 in /  0 mm
18:56 71.6 °F /  22 °C 57.0 °F /  13.9 °C 30.09 in /  1018.8 hPa Calm   1.0 mph /  1.6 km/h 60 % 0.00 in /  0 mm
19:01 71.4 °F /  21.9 °C 58.1 °F /  14.5 °C 30.09 in /  1018.8 hPa WNW 0.8 mph /  1.3 km/h 3.5 mph /  5.6 km/h 63 % 0.00 in /  0 mm
19:06 71.2 °F /  21.8 °C 57.9 °F /  14.4 °C 30.09 in /  1018.8 hPa West 1.0 mph /  1.6 km/h 5.0 mph /  8 km/h 63 % 0.00 in /  0 mm
19:11 70.9 °F /  21.6 °C 58.2 °F /  14.6 °C 30.09 in /  1018.8 hPa West 1.0 mph /  1.6 km/h 4.0 mph /  6.4 km/h 64 % 0.00 in /  0 mm
19:16 70.7 °F /  21.5 °C 57.9 °F /  14.4 °C 30.09 in /  1018.8 hPa Calm   3.0 mph /  4.8 km/h 64 % 0.00 in /  0 mm
19:20 70.5 °F /  21.4 °C 57.7 °F /  14.3 °C 30.09 in /  1018.8 hPa WNW 1.0 mph /  1.6 km/h 3.0 mph /  4.8 km/h 64 % 0.00 in /  0 mm
19:25 70.3 °F /  21.3 °C 57.5 °F /  14.2 °C 30.09 in /  1018.8 hPa Calm   1.0 mph /  1.6 km/h 64 % 0.00 in /  0 mm
19:31 70.1 °F /  21.2 °C 57.4 °F /  14.1 °C 30.09 in /  1018.8 hPa West 1.0 mph /  1.6 km/h 3.0 mph /  4.8 km/h 64 % 0.00 in /  0 mm
19:36 69.9 °F /  21.1 °C 57.2 °F /  14 °C 30.09 in /  1018.8 hPa Calm   3.0 mph /  4.8 km/h 64 % 0.00 in /  0 mm
19:40 69.7 °F /  20.9 °C 57.4 °F /  14.1 °C 30.09 in /  1018.8 hPa Calm   1.0 mph /  1.6 km/h 65 % 0.00 in /  0 mm
19:45 69.4 °F /  20.8 °C 57.1 °F /  13.9 °C 30.08 in /  1018.5 hPa Calm   3.0 mph /  4.8 km/h 65 % 0.00 in /  0 mm
19:51 69.2 °F /  20.7 °C 57.4 °F /  14.1 °C 30.08 in /  1018.5 hPa WNW 1.0 mph /  1.6 km/h 3.0 mph /  4.8 km/h 66 % 0.00 in /  0 mm
19:56 69.0 °F /  20.6 °C 57.6 °F /  14.2 °C 30.09 in /  1018.8 hPa Calm   2.0 mph /  3.2 km/h 67 % 0.00 in /  0 mm
20:01 68.8 °F /  20.4 °C 57.8 °F /  14.3 °C 30.09 in /  1018.8 hPa WNW 0.2 mph /  0.3 km/h 2.3 mph /  3.7 km/h 68 % 0.00 in /  0 mm
20:06 68.6 °F /  20.3 °C 58.0 °F /  14.4 °C 30.09 in /  1018.8 hPa WNW 0.5 mph /  0.8 km/h 1.2 mph /  1.9 km/h 69 % 0.00 in /  0 mm
20:11 68.5 °F /  20.3 °C 57.9 °F /  14.4 °C 30.09 in /  1018.8 hPa Calm   2.3 mph /  3.7 km/h 69 % 0.00 in /  0 mm
20:16 68.3 °F /  20.2 °C 57.7 °F /  14.3 °C 30.08 in /  1018.5 hPa Calm     69 % 0.00 in /  0 mm
20:21 68.1 °F /  20.1 °C 57.5 °F /  14.2 °C 30.09 in /  1018.8 hPa Calm     69 % 0.00 in /  0 mm
20:26 67.8 °F /  19.9 °C 57.3 °F /  14.1 °C 30.09 in /  1018.8 hPa West 0.4 mph /  0.6 km/h 2.3 mph /  3.7 km/h 69 % 0.00 in /  0 mm
20:31 67.6 °F /  19.8 °C 57.5 °F /  14.2 °C 30.09 in /  1018.8 hPa West 0.1 mph /  0.2 km/h 2.3 mph /  3.7 km/h 70 % 0.00 in /  0 mm
20:36 67.4 °F /  19.7 °C 57.7 °F /  14.3 °C 30.09 in /  1018.8 hPa Calm   1.2 mph /  1.9 km/h 71 % 0.00 in /  0 mm
20:41 67.3 °F /  19.6 °C 57.6 °F /  14.2 °C 30.09 in /  1018.8 hPa Calm     71 % 0.00 in /  0 mm
20:46 67.1 °F /  19.5 °C 57.4 °F /  14.1 °C 30.09 in /  1018.8 hPa Calm     71 % 0.00 in /  0 mm
20:51 66.9 °F /  19.4 °C 57.6 °F /  14.2 °C 30.09 in /  1018.8 hPa West 0.1 mph /  0.2 km/h 1.2 mph /  1.9 km/h 72 % 0.00 in /  0 mm
20:56 66.6 °F /  19.2 °C 57.7 °F /  14.3 °C 30.09 in /  1018.8 hPa West 0.3 mph /  0.5 km/h 1.2 mph /  1.9 km/h 73 % 0.00 in /  0 mm
21:01 66.4 °F /  19.1 °C 57.5 °F /  14.2 °C 30.09 in /  1018.8 hPa West 0.1 mph /  0.2 km/h 1.2 mph /  1.9 km/h 73 % 0.00 in /  0 mm
21:06 66.2 °F /  19 °C 57.7 °F /  14.3 °C 30.09 in /  1018.8 hPa West 0.4 mph /  0.6 km/h 2.3 mph /  3.7 km/h 74 % 0.00 in /  0 mm
21:11 66.0 °F /  18.9 °C 57.5 °F /  14.2 °C 30.09 in /  1018.8 hPa West 0.6 mph /  1 km/h 2.3 mph /  3.7 km/h 74 % 0.00 in /  0 mm
21:16 65.8 °F /  18.8 °C 58.0 °F /  14.4 °C 30.09 in /  1018.8 hPa West 0.7 mph /  1.1 km/h 2.3 mph /  3.7 km/h 76 % 0.00 in /  0 mm
21:21 65.6 °F /  18.7 °C 58.2 °F /  14.6 °C 30.09 in /  1018.8 hPa West 0.1 mph /  0.2 km/h 1.2 mph /  1.9 km/h 77 % 0.00 in /  0 mm
21:26 65.5 °F /  18.6 °C 58.1 °F /  14.5 °C 30.09 in /  1018.8 hPa Calm   1.2 mph /  1.9 km/h 77 % 0.00 in /  0 mm
21:31 65.4 °F /  18.6 °C 58.4 °F /  14.7 °C 30.09 in /  1018.8 hPa Calm     78 % 0.00 in /  0 mm
21:36 65.3 °F /  18.5 °C 58.6 °F /  14.8 °C 30.09 in /  1018.8 hPa West 1.4 mph /  2.3 km/h 3.5 mph /  5.6 km/h 79 % 0.00 in /  0 mm
21:41 65.2 °F /  18.4 °C 58.5 °F /  14.7 °C 30.09 in /  1018.8 hPa West 0.4 mph /  0.6 km/h 2.0 mph /  3.2 km/h 79 % 0.00 in /  0 mm
21:47 65.0 °F /  18.3 °C 58.7 °F /  14.8 °C 30.08 in /  1018.5 hPa West 0.9 mph /  1.4 km/h 1.2 mph /  1.9 km/h 80 % 0.00 in /  0 mm
21:51 64.9 °F /  18.3 °C 58.9 °F /  14.9 °C 30.09 in /  1018.8 hPa Calm   1.2 mph /  1.9 km/h 81 % 0.00 in /  0 mm
21:57 64.7 °F /  18.2 °C 58.7 °F /  14.8 °C 30.08 in /  1018.5 hPa West 0.7 mph /  1.1 km/h 2.3 mph /  3.7 km/h 81 % 0.00 in /  0 mm
22:02 64.6 °F /  18.1 °C 58.6 °F /  14.8 °C 30.08 in /  1018.5 hPa West 0.3 mph /  0.5 km/h 1.2 mph /  1.9 km/h 81 % 0.00 in /  0 mm
22:07 64.4 °F /  18 °C 58.4 °F /  14.7 °C 30.08 in /  1018.5 hPa West 0.9 mph /  1.4 km/h 2.0 mph /  3.2 km/h 81 % 0.00 in /  0 mm
22:12 64.2 °F /  17.9 °C 58.2 °F /  14.6 °C 30.08 in /  1018.5 hPa West 0.4 mph /  0.6 km/h 1.2 mph /  1.9 km/h 81 % 0.00 in /  0 mm
22:17 64.1 °F /  17.8 °C 58.1 °F /  14.5 °C 30.08 in /  1018.5 hPa West 0.4 mph /  0.6 km/h 1.2 mph /  1.9 km/h 81 % 0.00 in /  0 mm
22:22 63.9 °F /  17.7 °C 58.0 °F /  14.4 °C 30.08 in /  1018.5 hPa West 1.3 mph /  2.1 km/h 3.5 mph /  5.6 km/h 81 % 0.00 in /  0 mm
22:27 63.8 °F /  17.7 °C 57.9 °F /  14.4 °C 30.08 in /  1018.5 hPa West 1.4 mph /  2.3 km/h 3.5 mph /  5.6 km/h 81 % 0.00 in /  0 mm
22:32 63.7 °F /  17.6 °C 58.1 °F /  14.5 °C 30.08 in /  1018.5 hPa WSW 0.3 mph /  0.5 km/h 1.2 mph /  1.9 km/h 82 % 0.00 in /  0 mm
22:37 63.6 °F /  17.6 °C 58.0 °F /  14.4 °C 30.08 in /  1018.5 hPa WSW 0.1 mph /  0.2 km/h 1.2 mph /  1.9 km/h 82 % 0.00 in /  0 mm
22:42 63.5 °F /  17.5 °C 58.2 °F /  14.6 °C 30.08 in /  1018.5 hPa WSW 0.6 mph /  1 km/h 2.3 mph /  3.7 km/h 83 % 0.00 in /  0 mm
22:47 63.4 °F /  17.4 °C 58.1 °F /  14.5 °C 30.07 in /  1018.2 hPa WSW 0.7 mph /  1.1 km/h 2.3 mph /  3.7 km/h 83 % 0.00 in /  0 mm
22:52 63.3 °F /  17.4 °C 58.0 °F /  14.4 °C 30.07 in /  1018.2 hPa WSW 0.2 mph /  0.3 km/h 1.2 mph /  1.9 km/h 83 % 0.00 in /  0 mm
22:57 63.2 °F /  17.3 °C 58.3 °F /  14.6 °C 30.07 in /  1018.2 hPa Calm   2.3 mph /  3.7 km/h 84 % 0.00 in /  0 mm
23:02 63.1 °F /  17.3 °C 58.2 °F /  14.6 °C 30.07 in /  1018.2 hPa WSW 1.2 mph /  1.9 km/h 3.5 mph /  5.6 km/h 84 % 0.00 in /  0 mm
23:07 63.0 °F /  17.2 °C 58.1 °F /  14.5 °C 30.08 in /  1018.5 hPa Calm     84 % 0.00 in /  0 mm
23:12 63.0 °F /  17.2 °C 57.8 °F /  14.3 °C 30.07 in /  1018.2 hPa WSW 1.0 mph /  1.6 km/h 2.3 mph /  3.7 km/h 83 % 0.00 in /  0 mm
23:17 62.9 °F /  17.2 °C 57.7 °F /  14.3 °C 30.07 in /  1018.2 hPa WSW 1.1 mph /  1.8 km/h 2.3 mph /  3.7 km/h 83 % 0.00 in /  0 mm
23:22 62.9 °F /  17.2 °C 57.3 °F /  14.1 °C 30.07 in /  1018.2 hPa Calm   1.2 mph /  1.9 km/h 82 % 0.00 in /  0 mm
23:23 62.9 °F /  17.2 °C 57.3 °F /  14.1 °C 30.07 in /  1018.2 hPa Calm     82 % 0.00 in /  0 mm
23:28 62.9 °F /  17.2 °C 57.3 °F /  14.1 °C 30.07 in /  1018.2 hPa WNW 1.6 mph /  2.6 km/h 3.5 mph /  5.6 km/h 82 % 0.00 in /  0 mm
23:33 62.8 °F /  17.1 °C 56.9 °F /  13.8 °C 30.07 in /  1018.2 hPa WNW 0.3 mph /  0.5 km/h 3.5 mph /  5.6 km/h 81 % 0.00 in /  0 mm
23:43 63.0 °F /  17.2 °C 56.7 °F /  13.7 °C 30.07 in /  1018.2 hPa West 1.4 mph /  2.3 km/h 3.5 mph /  5.6 km/h 80 % 0.00 in /  0 mm
23:48 63.0 °F /  17.2 °C 56.7 °F /  13.7 °C 30.06 in /  1017.8 hPa WNW 0.9 mph /  1.4 km/h 5.0 mph /  8 km/h 80 % 0.00 in /  0 mm
23:53 63.2 °F /  17.3 °C 56.9 °F /  13.8 °C 30.06 in /  1017.8 hPa WNW 2.3 mph /  3.7 km/h 3.5 mph /  5.6 km/h 80 % 0.00 in /  0 mm
23:58 63.4 °F /  17.4 °C 57.1 °F /  13.9 °C 30.06 in /  1017.8 hPa West 1.8 mph /  2.9 km/h 3.5 mph /  5.6 km/h 80 % 0.00 in /  0 mm
Crab Meadow Weather
Compliments of Weather Underground - 3 mb

Script developed by  Jim McMurry - jmcmurry@mwt.net Adapted for the template by  Wim van der Kuil - Leuven-Template.eu

Extremes: The longest period without measurable rainfall in the United States was 767 days at Bagdad, California.